Main page
METAR-TAF:

METAR-TAF

Airports :

Tunis–Carthage International Airport

Tunis, Tunisia

latitude: 36-50N, longitude: 010-14E, elevation: 3 m

Current weather observation

The report was made 26 minutes ago, at 00:00 UTC
Calm wind
Temperature 16°C
Humidity 88%
Pressure 1019 hPa
Visibility 10 km or more
Few clouds at a height of 2600 ft

METAR: DTTA 240000Z 00000KT 9999 FEW026 16/14 Q1019 NOSIG

Time: 01:26 (00:26 UTC)

Forecast

The report was made 46 minutes ago, at 23:40 UTC
Forecast valid from 24 at 00 UTC to 24 at 24 UTC
Wind 3 kt from variable directions
Visibility 10 km or more
Few clouds at a height of 2600 ft
Probability 30% :
Temporary
from 24 at 03 UTC to 24 at 07 UTC
Visibility: 4000 m
mist
Becoming
from 24 at 07 UTC to 24 at 09 UTC
Wind 10 kt from the East/Northeast
Visibility 10 km or more
Few clouds at a height of 3000 ft

TAF: DTTA 232340Z 2400/2424 VRB03KT 9999 FEW026 PROB30 TEMPO 2403/2407 4000 BR BECMG 2407/2409 06010KT 9999 FEW030

Weather observations and forecasts of more than 4000 airports (METAR and TAF reports).

The available stations are represented by yellow and red dots on the map.

Hover mouse over dot to see the name of the station.

Then click to see weather observations and forecasts.

To change the map : click on the green buttons with a black cross to zoom in, on the green button with a dash to zoom out, or on the green arrows for adjacent maps.


METAR-TAF: